BARTON ATIS
Please check data is current before use. Last Updated 19/04/2018 09:06:31 z
D 0830 z

RWY 26L

CCT RH

M/CR QNH 1023

BARTON QFE 1021

STATUS: Airfield Open
Next Inspection: 19/04/18 14:00
AIRFIELD CLOSES: 1900 z

UNOFFICIAL WEATHER:
Unofficial Weather EGCB 190830Z 23006KT CAVOK 18/12 Q1023

****MAJOR AIRFIELD WORKS UNDERWAY REF AON-010 FOR FURTHER INFORMATION****
-MAIN APRON ENTRY / EXIT POINT CLOSED WEST OF JETA1 BOWSER
-RED AND WHITE MARKER BOARDS BETWEEN A3 AND 26L THRESHOLD



Wind Trend Information:
(updated 24hrs, every 5 minutes)
 
TOUCH AND GO STATUS:
CCTS Not Permitted

08L/26R - Closed due Work in Progress
08R/26L - Soft / Wet with Dew
14/32 - Closed due Surface Conditions
02/20 - Closed due Work in Progress